Profiler II — CZ2496 — position and weather

sailwx.info

Track history (hours):
 
Tides and Currents Weather Stations Pressure Air Temp Water Temp Dewpoint Dewpoint Depression Visibility Wind Speed Wind Dir Waves Ship Positions

Profiler II

Last reported at 2016-Feb-08 22:34 UTC. Time now 2016-Feb-10 00:42 UTC.
Position N 49°07' W 123°12'.

Type: Other ship. MMSI: 316002054.

Date/timePositionNaut miles runAvg speedWind from/ knotsBaromVisibWave heightAir tempDewpointWater temp
2016-Feb-08 22:34N 49°07' W 123°12'3 3.1
2016-Feb-08 21:33N 49°07' W 123°07'0 0.3
2016-Feb-08 20:33N 49°07' W 123°07'1 0.8
2016-Feb-08 19:34N 49°06' W 123°08'2 2.4
2016-Feb-08 18:34N 49°07' W 123°11'  
2016-Feb-04 23:29N 49°07' W 123°11'3 3.2
2016-Feb-04 22:33N 49°07' W 123°07'1 0.6
2016-Feb-04 21:33N 49°07' W 123°08'0 0.3
2016-Feb-04 20:33N 49°07' W 123°08'0 0.4
2016-Feb-04 19:33N 49°07' W 123°07'1 1.4
2016-Feb-04 18:33N 49°07' W 123°10'0 0.0
2016-Feb-04 17:33N 49°07' W 123°10'1 1.2
2016-Feb-04 16:33N 49°07' W 123°11'0 0.0
2016-Feb-02 22:33N 49°07' W 123°11'1 0.8
2016-Feb-02 21:34N 49°07' W 123°10'0 0.2
2016-Feb-02 20:34N 49°07' W 123°10'1 0.9
2016-Feb-02 19:34N 49°07' W 123°09'8 8.3
2016-Feb-02 18:34N 49°09' W 122°57'8 7.9
2016-Feb-02 17:33N 49°06' W 123°08'2 2.3
2016-Feb-02 16:33N 49°07' W 123°11'  
Track history (hours):
 
Tides and Currents Weather Stations Pressure Air Temp Water Temp Dewpoint Dewpoint Depression Visibility Wind Speed Wind Dir Waves Ship Positions

Profiler II

Last reported at 2016-Feb-08 22:34 UTC. Time now 2016-Feb-10 00:42 UTC.
Position N 49°07' W 123°12'.

Type: Other ship. MMSI: 316002054.

Date/timePositionNaut miles runAvg speedWind from/ knotsBaromVisibWave heightAir tempDewpointWater temp
2016-Feb-08 22:34N 49°07' W 123°12'3 3.1
2016-Feb-08 21:33N 49°07' W 123°07'0 0.3
2016-Feb-08 20:33N 49°07' W 123°07'1 0.8
2016-Feb-08 19:34N 49°06' W 123°08'2 2.4
2016-Feb-08 18:34N 49°07' W 123°11'  
2016-Feb-04 23:29N 49°07' W 123°11'3 3.2
2016-Feb-04 22:33N 49°07' W 123°07'1 0.6
2016-Feb-04 21:33N 49°07' W 123°08'0 0.3
2016-Feb-04 20:33N 49°07' W 123°08'0 0.4
2016-Feb-04 19:33N 49°07' W 123°07'1 1.4
2016-Feb-04 18:33N 49°07' W 123°10'0 0.0
2016-Feb-04 17:33N 49°07' W 123°10'1 1.2
2016-Feb-04 16:33N 49°07' W 123°11'0 0.0
2016-Feb-02 22:33N 49°07' W 123°11'1 0.8
2016-Feb-02 21:34N 49°07' W 123°10'0 0.2
2016-Feb-02 20:34N 49°07' W 123°10'1 0.9
2016-Feb-02 19:34N 49°07' W 123°09'8 8.3
2016-Feb-02 18:34N 49°09' W 122°57'8 7.9
2016-Feb-02 17:33N 49°06' W 123°08'2 2.3
2016-Feb-02 16:33N 49°07' W 123°11'  

Dump ship's entire track history